sensor_id;sensor_type;location;lat;lon;timestamp;P1;durP1;ratioP1;P2;durP2;ratioP2
62463;SDS011;48512;48.552;9.380;2023-03-31T00:01:40;10.65;;;3.00;;
62463;SDS011;48512;48.552;9.380;2023-03-31T00:04:07;8.63;;;2.80;;
62463;SDS011;48512;48.552;9.380;2023-03-31T00:06:36;12.07;;;3.30;;
62463;SDS011;48512;48.552;9.380;2023-03-31T00:09:04;10.45;;;3.35;;
62463;SDS011;48512;48.552;9.380;2023-03-31T00:11:30;9.70;;;3.00;;
62463;SDS011;48512;48.552;9.380;2023-03-31T00:13:56;12.90;;;3.28;;
62463;SDS011;48512;48.552;9.380;2023-03-31T00:16:23;13.15;;;3.67;;
62463;SDS011;48512;48.552;9.380;2023-03-31T00:18:49;14.70;;;3.40;;
62463;SDS011;48512;48.552;9.380;2023-03-31T00:21:16;13.82;;;3.65;;
62463;SDS011;48512;48.552;9.380;2023-03-31T00:23:58;13.90;;;3.72;;
62463;SDS011;48512;48.552;9.380;2023-03-31T00:26:26;10.07;;;3.42;;
62463;SDS011;48512;48.552;9.380;2023-03-31T00:28:54;10.30;;;3.60;;
62463;SDS011;48512;48.552;9.380;2023-03-31T00:31:20;13.05;;;3.38;;
62463;SDS011;48512;48.552;9.380;2023-03-31T00:33:47;11.15;;;3.10;;
62463;SDS011;48512;48.552;9.380;2023-03-31T00:36:14;8.25;;;3.55;;
62463;SDS011;48512;48.552;9.380;2023-03-31T00:38:53;15.55;;;3.65;;
62463;SDS011;48512;48.552;9.380;2023-03-31T00:41:21;17.80;;;3.45;;
62463;SDS011;48512;48.552;9.380;2023-03-31T00:46:54;7.65;;;3.25;;
62463;SDS011;48512;48.552;9.380;2023-03-31T00:52:15;6.83;;;3.00;;
62463;SDS011;48512;48.552;9.380;2023-03-31T00:54:44;9.70;;;3.47;;
62463;SDS011;48512;48.552;9.380;2023-03-31T00:57:13;12.27;;;3.42;;
62463;SDS011;48512;48.552;9.380;2023-03-31T00:59:47;12.07;;;3.20;;
62463;SDS011;48512;48.552;9.380;2023-03-31T01:02:16;11.77;;;3.00;;
62463;SDS011;48512;48.552;9.380;2023-03-31T01:04:46;10.50;;;3.17;;
62463;SDS011;48512;48.552;9.380;2023-03-31T01:07:17;9.60;;;3.10;;
62463;SDS011;48512;48.552;9.380;2023-03-31T01:09:52;12.93;;;3.63;;
62463;SDS011;48512;48.552;9.380;2023-03-31T01:12:21;14.20;;;3.58;;
62463;SDS011;48512;48.552;9.380;2023-03-31T01:14:49;13.23;;;3.05;;
62463;SDS011;48512;48.552;9.380;2023-03-31T01:17:17;11.75;;;3.15;;
62463;SDS011;48512;48.552;9.380;2023-03-31T01:22:32;11.95;;;3.30;;
62463;SDS011;48512;48.552;9.380;2023-03-31T01:34:34;15.15;;;3.35;;
62463;SDS011;48512;48.552;9.380;2023-03-31T01:47:54;9.77;;;3.38;;
62463;SDS011;48512;48.552;9.380;2023-03-31T01:50:28;9.32;;;3.20;;
62463;SDS011;48512;48.552;9.380;2023-03-31T01:55:36;9.93;;;3.30;;
62463;SDS011;48512;48.552;9.380;2023-03-31T01:58:11;8.35;;;3.22;;
62463;SDS011;48512;48.552;9.380;2023-03-31T02:00:58;10.98;;;3.17;;
62463;SDS011;48512;48.552;9.380;2023-03-31T02:03:36;7.18;;;3.35;;
62463;SDS011;48512;48.552;9.380;2023-03-31T02:06:09;13.45;;;3.58;;
62463;SDS011;48512;48.552;9.380;2023-03-31T02:08:40;8.20;;;3.67;;
62463;SDS011;48512;48.552;9.380;2023-03-31T02:11:10;12.15;;;4.13;;
62463;SDS011;48512;48.552;9.380;2023-03-31T02:13:37;10.60;;;4.03;;
62463;SDS011;48512;48.552;9.380;2023-03-31T02:16:08;8.07;;;3.58;;
62463;SDS011;48512;48.552;9.380;2023-03-31T02:18:37;15.70;;;4.30;;
62463;SDS011;48512;48.552;9.380;2023-03-31T02:21:08;12.40;;;4.38;;
62463;SDS011;48512;48.552;9.380;2023-03-31T02:23:36;12.02;;;4.93;;
62463;SDS011;48512;48.552;9.380;2023-03-31T02:26:05;15.43;;;4.30;;
62463;SDS011;48512;48.552;9.380;2023-03-31T02:28:34;8.82;;;4.22;;
62463;SDS011;48512;48.552;9.380;2023-03-31T02:31:05;13.70;;;4.50;;
62463;SDS011;48512;48.552;9.380;2023-03-31T02:33:45;16.73;;;4.93;;
62463;SDS011;48512;48.552;9.380;2023-03-31T02:36:12;17.58;;;5.30;;
62463;SDS011;48512;48.552;9.380;2023-03-31T02:38:41;13.93;;;4.30;;
62463;SDS011;48512;48.552;9.380;2023-03-31T02:41:10;15.00;;;5.03;;
62463;SDS011;48512;48.552;9.380;2023-03-31T02:43:37;11.98;;;5.10;;
62463;SDS011;48512;48.552;9.380;2023-03-31T02:46:03;13.00;;;5.32;;
62463;SDS011;48512;48.552;9.380;2023-03-31T02:48:31;17.75;;;5.97;;
62463;SDS011;48512;48.552;9.380;2023-03-31T02:51:13;13.48;;;5.60;;
62463;SDS011;48512;48.552;9.380;2023-03-31T03:05:31;17.25;;;6.07;;
62463;SDS011;48512;48.552;9.380;2023-03-31T03:11:43;14.38;;;5.43;;
62463;SDS011;48512;48.552;9.380;2023-03-31T03:14:19;12.65;;;6.00;;
62463;SDS011;48512;48.552;9.380;2023-03-31T03:19:38;17.65;;;6.00;;
62463;SDS011;48512;48.552;9.380;2023-03-31T03:22:07;12.60;;;6.07;;
62463;SDS011;48512;48.552;9.380;2023-03-31T03:24:33;15.65;;;7.13;;
62463;SDS011;48512;48.552;9.380;2023-03-31T03:27:00;15.57;;;6.10;;
62463;SDS011;48512;48.552;9.380;2023-03-31T03:29:26;16.27;;;6.38;;
62463;SDS011;48512;48.552;9.380;2023-03-31T03:31:52;17.17;;;6.47;;
62463;SDS011;48512;48.552;9.380;2023-03-31T03:34:19;17.52;;;6.97;;
62463;SDS011;48512;48.552;9.380;2023-03-31T03:36:45;14.88;;;6.13;;
62463;SDS011;48512;48.552;9.380;2023-03-31T03:39:12;14.10;;;6.75;;
62463;SDS011;48512;48.552;9.380;2023-03-31T03:41:38;19.17;;;6.57;;
62463;SDS011;48512;48.552;9.380;2023-03-31T03:44:04;14.85;;;6.45;;
62463;SDS011;48512;48.552;9.380;2023-03-31T03:46:30;17.67;;;7.07;;
62463;SDS011;48512;48.552;9.380;2023-03-31T03:48:56;16.13;;;7.20;;
62463;SDS011;48512;48.552;9.380;2023-03-31T03:51:23;14.73;;;7.00;;
62463;SDS011;48512;48.552;9.380;2023-03-31T03:53:49;20.20;;;8.43;;
62463;SDS011;48512;48.552;9.380;2023-03-31T03:56:15;20.23;;;7.78;;
62463;SDS011;48512;48.552;9.380;2023-03-31T03:58:41;19.33;;;8.65;;
62463;SDS011;48512;48.552;9.380;2023-03-31T04:01:07;19.15;;;7.82;;
62463;SDS011;48512;48.552;9.380;2023-03-31T04:03:33;17.92;;;7.03;;
62463;SDS011;48512;48.552;9.380;2023-03-31T04:05:59;20.95;;;7.90;;
62463;SDS011;48512;48.552;9.380;2023-03-31T04:08:25;21.38;;;7.28;;
62463;SDS011;48512;48.552;9.380;2023-03-31T04:10:52;19.45;;;7.88;;
62463;SDS011;48512;48.552;9.380;2023-03-31T04:13:18;19.27;;;7.82;;
62463;SDS011;48512;48.552;9.380;2023-03-31T04:15:45;15.70;;;7.60;;
62463;SDS011;48512;48.552;9.380;2023-03-31T04:18:11;17.73;;;7.80;;
62463;SDS011;48512;48.552;9.380;2023-03-31T04:20:48;21.88;;;7.90;;
62463;SDS011;48512;48.552;9.380;2023-03-31T04:23:20;22.42;;;7.97;;
62463;SDS011;48512;48.552;9.380;2023-03-31T04:25:49;17.87;;;8.20;;
62463;SDS011;48512;48.552;9.380;2023-03-31T04:28:15;19.05;;;8.60;;
62463;SDS011;48512;48.552;9.380;2023-03-31T04:30:42;24.98;;;7.75;;
62463;SDS011;48512;48.552;9.380;2023-03-31T04:33:08;17.98;;;7.65;;
62463;SDS011;48512;48.552;9.380;2023-03-31T04:35:34;19.38;;;7.75;;
62463;SDS011;48512;48.552;9.380;2023-03-31T04:38:19;23.20;;;8.68;;
62463;SDS011;48512;48.552;9.380;2023-03-31T04:40:49;17.27;;;6.68;;
62463;SDS011;48512;48.552;9.380;2023-03-31T04:43:17;23.08;;;7.68;;
62463;SDS011;48512;48.552;9.380;2023-03-31T04:45:45;20.05;;;8.10;;
62463;SDS011;48512;48.552;9.380;2023-03-31T04:48:11;21.77;;;8.57;;
62463;SDS011;48512;48.552;9.380;2023-03-31T04:50:37;19.48;;;7.20;;
62463;SDS011;48512;48.552;9.380;2023-03-31T04:53:04;21.75;;;8.15;;
62463;SDS011;48512;48.552;9.380;2023-03-31T04:55:30;19.80;;;7.38;;
62463;SDS011;48512;48.552;9.380;2023-03-31T04:57:56;19.70;;;8.52;;
62463;SDS011;48512;48.552;9.380;2023-03-31T05:00:23;17.70;;;7.93;;
62463;SDS011;48512;48.552;9.380;2023-03-31T05:02:49;18.25;;;8.00;;
62463;SDS011;48512;48.552;9.380;2023-03-31T05:05:16;21.38;;;8.07;;
62463;SDS011;48512;48.552;9.380;2023-03-31T05:07:42;27.15;;;8.68;;
62463;SDS011;48512;48.552;9.380;2023-03-31T05:10:08;15.60;;;7.65;;
62463;SDS011;48512;48.552;9.380;2023-03-31T05:12:36;20.17;;;9.25;;
62463;SDS011;48512;48.552;9.380;2023-03-31T05:15:03;19.63;;;6.90;;
62463;SDS011;48512;48.552;9.380;2023-03-31T05:17:31;29.35;;;8.95;;
62463;SDS011;48512;48.552;9.380;2023-03-31T05:19:58;33.15;;;9.95;;
62463;SDS011;48512;48.552;9.380;2023-03-31T05:22:25;22.35;;;8.90;;
62463;SDS011;48512;48.552;9.380;2023-03-31T05:24:51;28.85;;;9.40;;
62463;SDS011;48512;48.552;9.380;2023-03-31T05:27:17;24.52;;;9.35;;
62463;SDS011;48512;48.552;9.380;2023-03-31T05:29:47;26.30;;;10.18;;
62463;SDS011;48512;48.552;9.380;2023-03-31T05:32:13;24.30;;;9.85;;
62463;SDS011;48512;48.552;9.380;2023-03-31T05:34:40;28.98;;;10.63;;
62463;SDS011;48512;48.552;9.380;2023-03-31T05:37:08;27.33;;;10.05;;
62463;SDS011;48512;48.552;9.380;2023-03-31T05:39:34;28.45;;;10.85;;
62463;SDS011;48512;48.552;9.380;2023-03-31T05:42:00;34.47;;;10.55;;
62463;SDS011;48512;48.552;9.380;2023-03-31T05:44:28;22.58;;;10.35;;
62463;SDS011;48512;48.552;9.380;2023-03-31T05:46:54;23.90;;;9.68;;
62463;SDS011;48512;48.552;9.380;2023-03-31T05:49:21;24.50;;;10.18;;
62463;SDS011;48512;48.552;9.380;2023-03-31T05:51:47;27.80;;;10.65;;
62463;SDS011;48512;48.552;9.380;2023-03-31T05:54:13;19.00;;;9.40;;
62463;SDS011;48512;48.552;9.380;2023-03-31T05:56:39;22.88;;;9.93;;
62463;SDS011;48512;48.552;9.380;2023-03-31T05:59:05;20.13;;;9.27;;
62463;SDS011;48512;48.552;9.380;2023-03-31T06:01:32;18.95;;;8.68;;
62463;SDS011;48512;48.552;9.380;2023-03-31T06:03:58;20.92;;;8.57;;
62463;SDS011;48512;48.552;9.380;2023-03-31T06:06:24;22.73;;;8.68;;
62463;SDS011;48512;48.552;9.380;2023-03-31T06:08:50;20.73;;;8.43;;
62463;SDS011;48512;48.552;9.380;2023-03-31T06:11:17;16.20;;;7.28;;
62463;SDS011;48512;48.552;9.380;2023-03-31T06:13:45;13.98;;;7.45;;
62463;SDS011;48512;48.552;9.380;2023-03-31T06:16:13;17.80;;;8.68;;
62463;SDS011;48512;48.552;9.380;2023-03-31T06:18:40;16.10;;;7.15;;
62463;SDS011;48512;48.552;9.380;2023-03-31T06:21:06;13.88;;;6.72;;
62463;SDS011;48512;48.552;9.380;2023-03-31T06:23:35;12.77;;;6.75;;
62463;SDS011;48512;48.552;9.380;2023-03-31T06:26:02;12.35;;;7.47;;
62463;SDS011;48512;48.552;9.380;2023-03-31T06:28:31;11.85;;;6.60;;
62463;SDS011;48512;48.552;9.380;2023-03-31T06:31:04;12.27;;;6.75;;
62463;SDS011;48512;48.552;9.380;2023-03-31T06:33:33;12.77;;;6.60;;
62463;SDS011;48512;48.552;9.380;2023-03-31T06:35:59;15.77;;;6.45;;
62463;SDS011;48512;48.552;9.380;2023-03-31T06:38:28;11.00;;;6.37;;
62463;SDS011;48512;48.552;9.380;2023-03-31T06:40:55;14.75;;;6.47;;
62463;SDS011;48512;48.552;9.380;2023-03-31T06:43:21;13.02;;;6.03;;
62463;SDS011;48512;48.552;9.380;2023-03-31T06:45:47;8.98;;;5.57;;
62463;SDS011;48512;48.552;9.380;2023-03-31T06:48:14;14.75;;;6.00;;
62463;SDS011;48512;48.552;9.380;2023-03-31T06:50:40;9.60;;;6.85;;
62463;SDS011;48512;48.552;9.380;2023-03-31T06:53:10;12.10;;;5.82;;
62463;SDS011;48512;48.552;9.380;2023-03-31T06:55:36;10.82;;;5.85;;
62463;SDS011;48512;48.552;9.380;2023-03-31T06:58:03;12.98;;;6.38;;
62463;SDS011;48512;48.552;9.380;2023-03-31T07:00:31;11.82;;;6.15;;
62463;SDS011;48512;48.552;9.380;2023-03-31T07:02:57;12.65;;;6.60;;
62463;SDS011;48512;48.552;9.380;2023-03-31T07:05:24;16.83;;;8.20;;
62463;SDS011;48512;48.552;9.380;2023-03-31T07:07:54;13.05;;;7.10;;
62463;SDS011;48512;48.552;9.380;2023-03-31T07:10:22;16.88;;;7.88;;
62463;SDS011;48512;48.552;9.380;2023-03-31T07:12:49;11.95;;;5.60;;
62463;SDS011;48512;48.552;9.380;2023-03-31T07:15:16;10.73;;;5.38;;
62463;SDS011;48512;48.552;9.380;2023-03-31T07:17:42;6.88;;;4.55;;
62463;SDS011;48512;48.552;9.380;2023-03-31T07:20:09;7.32;;;4.72;;
62463;SDS011;48512;48.552;9.380;2023-03-31T07:22:40;8.27;;;5.07;;
62463;SDS011;48512;48.552;9.380;2023-03-31T07:25:08;6.68;;;4.18;;
62463;SDS011;48512;48.552;9.380;2023-03-31T07:27:36;6.47;;;4.43;;
62463;SDS011;48512;48.552;9.380;2023-03-31T07:30:05;9.07;;;3.92;;
62463;SDS011;48512;48.552;9.380;2023-03-31T07:32:33;8.52;;;4.18;;
62463;SDS011;48512;48.552;9.380;2023-03-31T07:35:06;5.65;;;4.47;;
62463;SDS011;48512;48.552;9.380;2023-03-31T07:37:37;6.32;;;4.13;;
62463;SDS011;48512;48.552;9.380;2023-03-31T07:40:06;6.00;;;3.67;;
62463;SDS011;48512;48.552;9.380;2023-03-31T07:42:34;6.25;;;3.60;;
62463;SDS011;48512;48.552;9.380;2023-03-31T07:45:01;7.03;;;3.60;;
62463;SDS011;48512;48.552;9.380;2023-03-31T07:47:27;4.53;;;3.40;;
62463;SDS011;48512;48.552;9.380;2023-03-31T07:49:54;5.40;;;3.30;;
62463;SDS011;48512;48.552;9.380;2023-03-31T07:52:20;4.63;;;3.03;;
62463;SDS011;48512;48.552;9.380;2023-03-31T07:54:46;4.63;;;2.58;;
62463;SDS011;48512;48.552;9.380;2023-03-31T07:57:12;4.05;;;2.60;;
62463;SDS011;48512;48.552;9.380;2023-03-31T07:59:38;2.60;;;2.40;;
62463;SDS011;48512;48.552;9.380;2023-03-31T08:02:05;5.57;;;2.40;;
62463;SDS011;48512;48.552;9.380;2023-03-31T08:04:31;6.40;;;3.38;;
62463;SDS011;48512;48.552;9.380;2023-03-31T08:06:58;5.10;;;2.88;;
62463;SDS011;48512;48.552;9.380;2023-03-31T08:09:24;3.83;;;2.30;;
62463;SDS011;48512;48.552;9.380;2023-03-31T08:11:51;2.95;;;2.10;;
62463;SDS011;48512;48.552;9.380;2023-03-31T08:14:17;2.78;;;1.65;;
62463;SDS011;48512;48.552;9.380;2023-03-31T08:16:43;2.65;;;2.10;;
62463;SDS011;48512;48.552;9.380;2023-03-31T08:19:09;3.63;;;1.83;;
62463;SDS011;48512;48.552;9.380;2023-03-31T08:21:35;4.55;;;2.08;;
62463;SDS011;48512;48.552;9.380;2023-03-31T08:24:02;2.63;;;1.75;;
62463;SDS011;48512;48.552;9.380;2023-03-31T08:26:28;1.30;;;1.20;;
62463;SDS011;48512;48.552;9.380;2023-03-31T08:28:56;2.35;;;1.35;;
62463;SDS011;48512;48.552;9.380;2023-03-31T08:31:23;3.75;;;1.60;;
62463;SDS011;48512;48.552;9.380;2023-03-31T08:33:50;3.08;;;1.45;;
62463;SDS011;48512;48.552;9.380;2023-03-31T08:36:16;2.10;;;1.42;;
62463;SDS011;48512;48.552;9.380;2023-03-31T08:38:43;1.27;;;1.15;;
62463;SDS011;48512;48.552;9.380;2023-03-31T08:41:22;2.78;;;1.80;;
62463;SDS011;48512;48.552;9.380;2023-03-31T08:44:12;1.73;;;1.45;;
62463;SDS011;48512;48.552;9.380;2023-03-31T08:46:42;5.22;;;1.40;;
62463;SDS011;48512;48.552;9.380;2023-03-31T08:49:11;1.40;;;1.30;;
62463;SDS011;48512;48.552;9.380;2023-03-31T08:51:46;2.63;;;1.48;;
62463;SDS011;48512;48.552;9.380;2023-03-31T08:54:16;2.63;;;1.38;;
62463;SDS011;48512;48.552;9.380;2023-03-31T08:56:48;1.35;;;1.25;;
62463;SDS011;48512;48.552;9.380;2023-03-31T09:06:59;4.50;;;1.40;;
62463;SDS011;48512;48.552;9.380;2023-03-31T09:15:52;1.40;;;1.10;;
62463;SDS011;48512;48.552;9.380;2023-03-31T09:18:30;5.53;;;1.70;;
62463;SDS011;48512;48.552;9.380;2023-03-31T09:23:34;4.65;;;1.50;;
62463;SDS011;48512;48.552;9.380;2023-03-31T09:26:06;2.60;;;1.25;;
62463;SDS011;48512;48.552;9.380;2023-03-31T09:28:45;3.00;;;1.50;;
62463;SDS011;48512;48.552;9.380;2023-03-31T09:31:13;3.28;;;1.77;;
62463;SDS011;48512;48.552;9.380;2023-03-31T09:33:45;3.33;;;1.20;;
62463;SDS011;48512;48.552;9.380;2023-03-31T09:36:13;2.55;;;1.10;;
62463;SDS011;48512;48.552;9.380;2023-03-31T09:38:42;3.67;;;1.30;;
62463;SDS011;48512;48.552;9.380;2023-03-31T09:41:09;2.55;;;1.70;;
62463;SDS011;48512;48.552;9.380;2023-03-31T09:43:39;2.63;;;1.60;;
62463;SDS011;48512;48.552;9.380;2023-03-31T09:46:14;2.55;;;1.30;;
62463;SDS011;48512;48.552;9.380;2023-03-31T09:48:51;5.93;;;1.52;;
62463;SDS011;48512;48.552;9.380;2023-03-31T09:51:22;3.22;;;1.27;;
62463;SDS011;48512;48.552;9.380;2023-03-31T09:54:00;4.15;;;1.50;;
62463;SDS011;48512;48.552;9.380;2023-03-31T09:59:30;1.90;;;1.27;;
62463;SDS011;48512;48.552;9.380;2023-03-31T10:02:04;3.70;;;1.50;;
62463;SDS011;48512;48.552;9.380;2023-03-31T10:04:48;5.63;;;1.70;;
62463;SDS011;48512;48.552;9.380;2023-03-31T10:07:19;3.65;;;1.67;;
62463;SDS011;48512;48.552;9.380;2023-03-31T10:09:47;3.08;;;1.60;;
62463;SDS011;48512;48.552;9.380;2023-03-31T10:12:18;5.22;;;1.63;;
62463;SDS011;48512;48.552;9.380;2023-03-31T10:14:49;6.40;;;1.55;;
62463;SDS011;48512;48.552;9.380;2023-03-31T10:17:18;6.43;;;1.40;;
62463;SDS011;48512;48.552;9.380;2023-03-31T10:19:47;7.40;;;1.58;;
62463;SDS011;48512;48.552;9.380;2023-03-31T10:29:56;3.63;;;1.38;;
62463;SDS011;48512;48.552;9.380;2023-03-31T10:34:54;5.45;;;2.28;;
62463;SDS011;48512;48.552;9.380;2023-03-31T10:37:22;6.90;;;1.65;;
62463;SDS011;48512;48.552;9.380;2023-03-31T10:42:48;7.32;;;1.95;;
62463;SDS011;48512;48.552;9.380;2023-03-31T10:45:24;6.57;;;2.08;;
62463;SDS011;48512;48.552;9.380;2023-03-31T10:47:53;6.25;;;1.70;;
62463;SDS011;48512;48.552;9.380;2023-03-31T10:50:29;5.15;;;1.65;;
62463;SDS011;48512;48.552;9.380;2023-03-31T10:53:00;6.53;;;1.50;;
62463;SDS011;48512;48.552;9.380;2023-03-31T10:56:15;3.50;;;1.38;;
62463;SDS011;48512;48.552;9.380;2023-03-31T11:07:25;5.03;;;1.20;;
62463;SDS011;48512;48.552;9.380;2023-03-31T11:23:43;6.43;;;1.30;;
62463;SDS011;48512;48.552;9.380;2023-03-31T11:26:24;4.40;;;1.10;;
62463;SDS011;48512;48.552;9.380;2023-03-31T11:36:58;4.38;;;1.23;;
62463;SDS011;48512;48.552;9.380;2023-03-31T11:39:59;5.65;;;2.75;;
62463;SDS011;48512;48.552;9.380;2023-03-31T11:42:56;2.97;;;1.30;;
62463;SDS011;48512;48.552;9.380;2023-03-31T11:48:04;5.20;;;1.20;;
62463;SDS011;48512;48.552;9.380;2023-03-31T11:50:38;2.85;;;1.10;;
62463;SDS011;48512;48.552;9.380;2023-03-31T11:55:47;5.65;;;0.82;;
62463;SDS011;48512;48.552;9.380;2023-03-31T12:00:57;5.28;;;0.90;;
62463;SDS011;48512;48.552;9.380;2023-03-31T12:03:38;2.58;;;1.52;;
62463;SDS011;48512;48.552;9.380;2023-03-31T12:06:15;2.33;;;1.33;;
62463;SDS011;48512;48.552;9.380;2023-03-31T12:11:25;2.22;;;1.10;;
62463;SDS011;48512;48.552;9.380;2023-03-31T12:14:03;5.18;;;1.45;;
62463;SDS011;48512;48.552;9.380;2023-03-31T12:22:03;2.15;;;0.90;;
62463;SDS011;48512;48.552;9.380;2023-03-31T12:24:36;3.25;;;1.00;;
62463;SDS011;48512;48.552;9.380;2023-03-31T12:27:13;1.17;;;0.93;;
62463;SDS011;48512;48.552;9.380;2023-03-31T12:29:57;1.38;;;0.85;;
62463;SDS011;48512;48.552;9.380;2023-03-31T12:32:33;1.13;;;0.70;;
62463;SDS011;48512;48.552;9.380;2023-03-31T12:35:09;1.98;;;0.95;;
62463;SDS011;48512;48.552;9.380;2023-03-31T12:45:35;3.33;;;0.98;;
62463;SDS011;48512;48.552;9.380;2023-03-31T12:53:40;3.03;;;0.93;;
62463;SDS011;48512;48.552;9.380;2023-03-31T12:56:11;1.13;;;0.80;;
62463;SDS011;48512;48.552;9.380;2023-03-31T12:58:39;2.17;;;0.90;;
62463;SDS011;48512;48.552;9.380;2023-03-31T13:06:45;5.30;;;1.17;;
62463;SDS011;48512;48.552;9.380;2023-03-31T13:11:43;4.82;;;1.10;;
62463;SDS011;48512;48.552;9.380;2023-03-31T13:14:15;5.85;;;1.52;;
62463;SDS011;48512;48.552;9.380;2023-03-31T13:16:48;7.28;;;1.20;;
62463;SDS011;48512;48.552;9.380;2023-03-31T13:19:34;4.80;;;1.23;;
62463;SDS011;48512;48.552;9.380;2023-03-31T13:22:02;3.55;;;0.88;;
62463;SDS011;48512;48.552;9.380;2023-03-31T13:24:30;3.60;;;1.10;;
62463;SDS011;48512;48.552;9.380;2023-03-31T13:26:58;5.80;;;1.50;;
62463;SDS011;48512;48.552;9.380;2023-03-31T13:30:37;18.50;;;1.88;;
62463;SDS011;48512;48.552;9.380;2023-03-31T13:33:14;7.20;;;1.83;;
62463;SDS011;48512;48.552;9.380;2023-03-31T13:35:47;7.20;;;1.40;;
62463;SDS011;48512;48.552;9.380;2023-03-31T13:52:09;11.60;;;1.90;;
62463;SDS011;48512;48.552;9.380;2023-03-31T14:00:25;7.05;;;2.00;;
62463;SDS011;48512;48.552;9.380;2023-03-31T14:05:49;11.63;;;2.67;;
62463;SDS011;48512;48.552;9.380;2023-03-31T14:09:05;2.45;;;1.40;;
62463;SDS011;48512;48.552;9.380;2023-03-31T14:14:04;6.78;;;3.08;;
62463;SDS011;48512;48.552;9.380;2023-03-31T14:16:39;2.17;;;1.38;;
62463;SDS011;48512;48.552;9.380;2023-03-31T14:25:12;2.97;;;1.52;;
62463;SDS011;48512;48.552;9.380;2023-03-31T14:28:03;4.20;;;2.40;;
62463;SDS011;48512;48.552;9.380;2023-03-31T14:30:42;3.28;;;1.20;;
62463;SDS011;48512;48.552;9.380;2023-03-31T14:38:23;4.85;;;1.67;;
62463;SDS011;48512;48.552;9.380;2023-03-31T14:40:52;6.38;;;2.38;;
62463;SDS011;48512;48.552;9.380;2023-03-31T14:43:21;4.55;;;1.73;;
62463;SDS011;48512;48.552;9.380;2023-03-31T14:46:00;3.58;;;1.52;;
62463;SDS011;48512;48.552;9.380;2023-03-31T14:48:43;9.65;;;3.92;;
62463;SDS011;48512;48.552;9.380;2023-03-31T14:51:16;8.75;;;2.83;;
62463;SDS011;48512;48.552;9.380;2023-03-31T14:53:54;4.70;;;1.67;;
62463;SDS011;48512;48.552;9.380;2023-03-31T14:56:31;25.77;;;8.40;;
62463;SDS011;48512;48.552;9.380;2023-03-31T14:59:01;2.85;;;1.08;;
62463;SDS011;48512;48.552;9.380;2023-03-31T15:01:31;5.55;;;2.15;;
62463;SDS011;48512;48.552;9.380;2023-03-31T15:03:59;2.63;;;1.42;;
62463;SDS011;48512;48.552;9.380;2023-03-31T15:06:31;3.75;;;1.30;;
62463;SDS011;48512;48.552;9.380;2023-03-31T15:09:00;5.47;;;2.33;;
62463;SDS011;48512;48.552;9.380;2023-03-31T15:11:28;4.93;;;1.25;;
62463;SDS011;48512;48.552;9.380;2023-03-31T15:13:56;5.15;;;2.50;;
62463;SDS011;48512;48.552;9.380;2023-03-31T15:16:38;4.50;;;2.10;;
62463;SDS011;48512;48.552;9.380;2023-03-31T15:19:17;4.82;;;1.65;;
62463;SDS011;48512;48.552;9.380;2023-03-31T15:21:55;4.70;;;1.90;;
62463;SDS011;48512;48.552;9.380;2023-03-31T15:27:02;2.55;;;0.70;;
62463;SDS011;48512;48.552;9.380;2023-03-31T15:32:03;1.08;;;0.77;;
62463;SDS011;48512;48.552;9.380;2023-03-31T15:34:38;5.07;;;2.70;;
62463;SDS011;48512;48.552;9.380;2023-03-31T15:37:08;3.28;;;1.27;;
62463;SDS011;48512;48.552;9.380;2023-03-31T15:39:36;1.75;;;0.80;;
62463;SDS011;48512;48.552;9.380;2023-03-31T15:42:04;1.30;;;0.80;;
62463;SDS011;48512;48.552;9.380;2023-03-31T15:47:17;3.28;;;0.90;;
62463;SDS011;48512;48.552;9.380;2023-03-31T15:49:46;1.02;;;0.80;;
62463;SDS011;48512;48.552;9.380;2023-03-31T15:52:38;6.47;;;1.17;;
62463;SDS011;48512;48.552;9.380;2023-03-31T15:55:28;4.25;;;1.48;;
62463;SDS011;48512;48.552;9.380;2023-03-31T15:57:57;4.28;;;1.42;;
62463;SDS011;48512;48.552;9.380;2023-03-31T16:05:40;3.15;;;0.98;;
62463;SDS011;48512;48.552;9.380;2023-03-31T16:08:11;6.57;;;1.00;;
62463;SDS011;48512;48.552;9.380;2023-03-31T16:10:41;6.60;;;2.13;;
62463;SDS011;48512;48.552;9.380;2023-03-31T16:13:08;4.40;;;0.90;;
62463;SDS011;48512;48.552;9.380;2023-03-31T16:15:43;11.80;;;1.80;;
62463;SDS011;48512;48.552;9.380;2023-03-31T16:18:14;7.97;;;2.35;;
62463;SDS011;48512;48.552;9.380;2023-03-31T16:20:54;6.45;;;1.23;;
62463;SDS011;48512;48.552;9.380;2023-03-31T16:23:26;7.13;;;2.50;;
62463;SDS011;48512;48.552;9.380;2023-03-31T16:25:54;6.55;;;2.53;;
62463;SDS011;48512;48.552;9.380;2023-03-31T16:28:28;3.70;;;1.33;;
62463;SDS011;48512;48.552;9.380;2023-03-31T16:30:57;6.75;;;1.42;;
62463;SDS011;48512;48.552;9.380;2023-03-31T16:33:27;6.35;;;2.25;;
62463;SDS011;48512;48.552;9.380;2023-03-31T16:38:24;3.58;;;1.10;;
62463;SDS011;48512;48.552;9.380;2023-03-31T16:40:51;7.53;;;1.65;;
62463;SDS011;48512;48.552;9.380;2023-03-31T16:45:46;8.88;;;1.92;;
62463;SDS011;48512;48.552;9.380;2023-03-31T16:48:14;7.43;;;2.63;;
62463;SDS011;48512;48.552;9.380;2023-03-31T16:50:44;11.57;;;3.40;;
62463;SDS011;48512;48.552;9.380;2023-03-31T16:53:12;9.20;;;2.22;;
62463;SDS011;48512;48.552;9.380;2023-03-31T16:55:39;5.90;;;2.30;;
62463;SDS011;48512;48.552;9.380;2023-03-31T16:58:05;5.93;;;3.13;;
62463;SDS011;48512;48.552;9.380;2023-03-31T17:00:32;6.30;;;2.15;;
62463;SDS011;48512;48.552;9.380;2023-03-31T17:03:04;6.05;;;2.45;;
62463;SDS011;48512;48.552;9.380;2023-03-31T17:07:58;9.32;;;5.38;;
62463;SDS011;48512;48.552;9.380;2023-03-31T17:10:25;6.15;;;2.28;;
62463;SDS011;48512;48.552;9.380;2023-03-31T17:12:51;4.25;;;2.03;;
62463;SDS011;48512;48.552;9.380;2023-03-31T17:15:18;7.55;;;2.33;;
62463;SDS011;48512;48.552;9.380;2023-03-31T17:17:45;4.07;;;1.33;;
62463;SDS011;48512;48.552;9.380;2023-03-31T17:20:12;2.80;;;1.27;;
62463;SDS011;48512;48.552;9.380;2023-03-31T17:22:39;4.38;;;1.00;;
62463;SDS011;48512;48.552;9.380;2023-03-31T17:25:06;3.58;;;1.27;;
62463;SDS011;48512;48.552;9.380;2023-03-31T17:27:34;4.75;;;1.83;;
62463;SDS011;48512;48.552;9.380;2023-03-31T17:30:00;3.92;;;1.13;;
62463;SDS011;48512;48.552;9.380;2023-03-31T17:32:26;4.70;;;1.30;;
62463;SDS011;48512;48.552;9.380;2023-03-31T17:34:53;11.77;;;1.85;;
62463;SDS011;48512;48.552;9.380;2023-03-31T17:37:20;6.03;;;1.30;;
62463;SDS011;48512;48.552;9.380;2023-03-31T17:39:46;3.92;;;1.30;;
62463;SDS011;48512;48.552;9.380;2023-03-31T17:42:13;4.43;;;2.17;;
62463;SDS011;48512;48.552;9.380;2023-03-31T17:44:39;6.22;;;1.45;;
62463;SDS011;48512;48.552;9.380;2023-03-31T17:47:06;9.40;;;1.65;;
62463;SDS011;48512;48.552;9.380;2023-03-31T17:49:33;4.03;;;1.80;;
62463;SDS011;48512;48.552;9.380;2023-03-31T17:51:59;7.00;;;2.00;;
62463;SDS011;48512;48.552;9.380;2023-03-31T17:54:25;8.20;;;2.92;;
62463;SDS011;48512;48.552;9.380;2023-03-31T17:56:52;7.35;;;2.88;;
62463;SDS011;48512;48.552;9.380;2023-03-31T17:59:19;9.60;;;4.00;;
62463;SDS011;48512;48.552;9.380;2023-03-31T18:01:45;11.75;;;2.53;;
62463;SDS011;48512;48.552;9.380;2023-03-31T18:04:14;9.13;;;2.03;;
62463;SDS011;48512;48.552;9.380;2023-03-31T18:06:40;4.57;;;1.80;;
62463;SDS011;48512;48.552;9.380;2023-03-31T18:09:07;7.45;;;1.88;;
62463;SDS011;48512;48.552;9.380;2023-03-31T18:11:34;10.50;;;2.47;;
62463;SDS011;48512;48.552;9.380;2023-03-31T18:14:00;6.22;;;1.45;;
62463;SDS011;48512;48.552;9.380;2023-03-31T18:16:27;5.90;;;2.35;;
62463;SDS011;48512;48.552;9.380;2023-03-31T18:18:56;9.05;;;2.60;;
62463;SDS011;48512;48.552;9.380;2023-03-31T18:21:23;8.73;;;2.60;;
62463;SDS011;48512;48.552;9.380;2023-03-31T18:23:50;7.63;;;2.28;;
62463;SDS011;48512;48.552;9.380;2023-03-31T18:26:20;4.68;;;1.27;;
62463;SDS011;48512;48.552;9.380;2023-03-31T18:28:49;6.17;;;1.50;;